sensor_id;sensor_type;location;lat;lon;timestamp;P1;durP1;ratioP1;P2;durP2;ratioP2
59338;SDS011;45117;50.960;5.500;2023-05-10T00:00:45;23.80;;;12.93;;
59338;SDS011;45117;50.960;5.500;2023-05-10T00:03:11;23.33;;;12.82;;
59338;SDS011;45117;50.960;5.500;2023-05-10T00:05:38;21.92;;;12.27;;
59338;SDS011;45117;50.960;5.500;2023-05-10T00:08:04;21.70;;;12.10;;
59338;SDS011;45117;50.960;5.500;2023-05-10T00:10:31;21.17;;;12.02;;
59338;SDS011;45117;50.960;5.500;2023-05-10T00:12:57;21.77;;;12.35;;
59338;SDS011;45117;50.960;5.500;2023-05-10T00:15:24;22.55;;;12.23;;
59338;SDS011;45117;50.960;5.500;2023-05-10T00:17:52;20.58;;;12.25;;
59338;SDS011;45117;50.960;5.500;2023-05-10T00:20:18;21.08;;;11.95;;
59338;SDS011;45117;50.960;5.500;2023-05-10T00:22:45;19.40;;;11.88;;
59338;SDS011;45117;50.960;5.500;2023-05-10T00:25:12;20.55;;;11.73;;
59338;SDS011;45117;50.960;5.500;2023-05-10T00:27:38;16.63;;;10.60;;
59338;SDS011;45117;50.960;5.500;2023-05-10T00:30:05;16.63;;;9.82;;
59338;SDS011;45117;50.960;5.500;2023-05-10T00:32:32;20.40;;;10.50;;
59338;SDS011;45117;50.960;5.500;2023-05-10T00:35:00;16.17;;;9.90;;
59338;SDS011;45117;50.960;5.500;2023-05-10T00:37:27;16.73;;;9.77;;
59338;SDS011;45117;50.960;5.500;2023-05-10T00:39:53;16.27;;;9.55;;
59338;SDS011;45117;50.960;5.500;2023-05-10T00:42:20;16.73;;;9.18;;
59338;SDS011;45117;50.960;5.500;2023-05-10T00:44:47;14.95;;;9.05;;
59338;SDS011;45117;50.960;5.500;2023-05-10T00:47:13;18.15;;;9.63;;
59338;SDS011;45117;50.960;5.500;2023-05-10T00:49:40;14.95;;;9.38;;
59338;SDS011;45117;50.960;5.500;2023-05-10T00:52:09;16.65;;;9.50;;
59338;SDS011;45117;50.960;5.500;2023-05-10T00:54:35;19.95;;;11.15;;
59338;SDS011;45117;50.960;5.500;2023-05-10T00:57:02;16.75;;;10.00;;
59338;SDS011;45117;50.960;5.500;2023-05-10T00:59:29;15.25;;;9.20;;
59338;SDS011;45117;50.960;5.500;2023-05-10T01:01:55;15.50;;;9.27;;
59338;SDS011;45117;50.960;5.500;2023-05-10T01:04:23;17.60;;;9.55;;
59338;SDS011;45117;50.960;5.500;2023-05-10T01:06:50;17.83;;;9.90;;
59338;SDS011;45117;50.960;5.500;2023-05-10T01:09:19;16.10;;;9.43;;
59338;SDS011;45117;50.960;5.500;2023-05-10T01:11:45;14.93;;;9.18;;
59338;SDS011;45117;50.960;5.500;2023-05-10T01:14:12;16.15;;;9.23;;
59338;SDS011;45117;50.960;5.500;2023-05-10T01:16:40;16.30;;;8.48;;
59338;SDS011;45117;50.960;5.500;2023-05-10T01:19:11;12.50;;;8.13;;
59338;SDS011;45117;50.960;5.500;2023-05-10T01:21:45;13.48;;;8.13;;
59338;SDS011;45117;50.960;5.500;2023-05-10T01:27:28;14.60;;;9.15;;
59338;SDS011;45117;50.960;5.500;2023-05-10T01:33:18;14.27;;;8.82;;
59338;SDS011;45117;50.960;5.500;2023-05-10T01:35:51;14.35;;;7.95;;
59338;SDS011;45117;50.960;5.500;2023-05-10T01:38:25;13.27;;;9.25;;
59338;SDS011;45117;50.960;5.500;2023-05-10T01:41:01;14.35;;;8.23;;
59338;SDS011;45117;50.960;5.500;2023-05-10T01:43:36;14.10;;;8.63;;
59338;SDS011;45117;50.960;5.500;2023-05-10T01:46:09;16.25;;;9.15;;
59338;SDS011;45117;50.960;5.500;2023-05-10T01:48:41;13.82;;;8.57;;
59338;SDS011;45117;50.960;5.500;2023-05-10T01:51:14;17.48;;;9.10;;
59338;SDS011;45117;50.960;5.500;2023-05-10T01:53:45;15.90;;;9.50;;
59338;SDS011;45117;50.960;5.500;2023-05-10T01:56:14;13.80;;;7.75;;
59338;SDS011;45117;50.960;5.500;2023-05-10T01:58:43;16.98;;;8.52;;
59338;SDS011;45117;50.960;5.500;2023-05-10T02:01:13;18.60;;;8.40;;
59338;SDS011;45117;50.960;5.500;2023-05-10T02:03:42;16.92;;;8.88;;
59338;SDS011;45117;50.960;5.500;2023-05-10T02:06:10;12.60;;;7.47;;
59338;SDS011;45117;50.960;5.500;2023-05-10T02:08:38;18.88;;;8.48;;
59338;SDS011;45117;50.960;5.500;2023-05-10T02:11:07;18.85;;;8.98;;
59338;SDS011;45117;50.960;5.500;2023-05-10T02:13:35;21.73;;;9.73;;
59338;SDS011;45117;50.960;5.500;2023-05-10T02:16:04;21.23;;;9.57;;
59338;SDS011;45117;50.960;5.500;2023-05-10T02:18:32;21.45;;;9.35;;
59338;SDS011;45117;50.960;5.500;2023-05-10T02:21:01;19.55;;;9.38;;
59338;SDS011;45117;50.960;5.500;2023-05-10T02:23:29;18.40;;;9.30;;
59338;SDS011;45117;50.960;5.500;2023-05-10T02:25:56;18.38;;;9.45;;
59338;SDS011;45117;50.960;5.500;2023-05-10T02:28:24;18.20;;;8.82;;
59338;SDS011;45117;50.960;5.500;2023-05-10T02:30:52;18.90;;;9.77;;
59338;SDS011;45117;50.960;5.500;2023-05-10T02:33:20;19.67;;;10.10;;
59338;SDS011;45117;50.960;5.500;2023-05-10T02:35:48;21.38;;;10.23;;
59338;SDS011;45117;50.960;5.500;2023-05-10T02:38:17;21.80;;;10.52;;
59338;SDS011;45117;50.960;5.500;2023-05-10T02:40:46;22.02;;;10.85;;
59338;SDS011;45117;50.960;5.500;2023-05-10T02:43:14;21.40;;;9.07;;
59338;SDS011;45117;50.960;5.500;2023-05-10T02:45:43;23.27;;;10.95;;
59338;SDS011;45117;50.960;5.500;2023-05-10T02:48:13;24.00;;;10.52;;
59338;SDS011;45117;50.960;5.500;2023-05-10T02:50:40;23.15;;;10.32;;
59338;SDS011;45117;50.960;5.500;2023-05-10T02:53:10;22.25;;;9.88;;
59338;SDS011;45117;50.960;5.500;2023-05-10T02:55:43;21.17;;;10.63;;
59338;SDS011;45117;50.960;5.500;2023-05-10T02:58:12;20.55;;;10.48;;
59338;SDS011;45117;50.960;5.500;2023-05-10T03:00:39;23.25;;;11.45;;
59338;SDS011;45117;50.960;5.500;2023-05-10T03:03:05;20.48;;;10.63;;
59338;SDS011;45117;50.960;5.500;2023-05-10T03:05:32;20.02;;;9.05;;
59338;SDS011;45117;50.960;5.500;2023-05-10T03:07:59;24.58;;;11.18;;
59338;SDS011;45117;50.960;5.500;2023-05-10T03:10:29;20.48;;;9.52;;
59338;SDS011;45117;50.960;5.500;2023-05-10T03:13:05;21.55;;;11.20;;
59338;SDS011;45117;50.960;5.500;2023-05-10T03:15:37;20.33;;;10.35;;
59338;SDS011;45117;50.960;5.500;2023-05-10T03:18:15;26.00;;;11.30;;
59338;SDS011;45117;50.960;5.500;2023-05-10T03:20:46;25.88;;;11.65;;
59338;SDS011;45117;50.960;5.500;2023-05-10T03:23:18;22.75;;;11.10;;
59338;SDS011;45117;50.960;5.500;2023-05-10T03:25:49;24.83;;;11.75;;
59338;SDS011;45117;50.960;5.500;2023-05-10T03:28:17;24.02;;;10.55;;
59338;SDS011;45117;50.960;5.500;2023-05-10T03:30:45;23.83;;;11.65;;
59338;SDS011;45117;50.960;5.500;2023-05-10T03:33:12;28.73;;;11.68;;
59338;SDS011;45117;50.960;5.500;2023-05-10T03:35:39;28.02;;;12.40;;
59338;SDS011;45117;50.960;5.500;2023-05-10T03:38:06;25.05;;;11.68;;
59338;SDS011;45117;50.960;5.500;2023-05-10T03:40:32;25.23;;;12.07;;
59338;SDS011;45117;50.960;5.500;2023-05-10T03:42:59;25.13;;;12.32;;
59338;SDS011;45117;50.960;5.500;2023-05-10T03:45:27;28.23;;;12.23;;
59338;SDS011;45117;50.960;5.500;2023-05-10T03:47:53;25.80;;;11.95;;
59338;SDS011;45117;50.960;5.500;2023-05-10T03:50:20;26.42;;;11.98;;
59338;SDS011;45117;50.960;5.500;2023-05-10T03:52:47;29.00;;;12.30;;
59338;SDS011;45117;50.960;5.500;2023-05-10T03:55:13;26.30;;;11.95;;
59338;SDS011;45117;50.960;5.500;2023-05-10T03:57:40;24.08;;;12.15;;
59338;SDS011;45117;50.960;5.500;2023-05-10T04:00:07;25.38;;;11.75;;
59338;SDS011;45117;50.960;5.500;2023-05-10T04:02:36;27.67;;;11.77;;
59338;SDS011;45117;50.960;5.500;2023-05-10T04:05:02;28.15;;;12.55;;
59338;SDS011;45117;50.960;5.500;2023-05-10T04:07:29;22.90;;;11.77;;
59338;SDS011;45117;50.960;5.500;2023-05-10T04:09:55;28.58;;;12.63;;
59338;SDS011;45117;50.960;5.500;2023-05-10T04:12:22;27.60;;;12.30;;
59338;SDS011;45117;50.960;5.500;2023-05-10T04:14:48;26.95;;;12.45;;
59338;SDS011;45117;50.960;5.500;2023-05-10T04:17:16;25.45;;;12.25;;
59338;SDS011;45117;50.960;5.500;2023-05-10T04:19:44;19.05;;;10.57;;
59338;SDS011;45117;50.960;5.500;2023-05-10T04:22:10;27.35;;;13.18;;
59338;SDS011;45117;50.960;5.500;2023-05-10T04:24:36;23.48;;;11.60;;
59338;SDS011;45117;50.960;5.500;2023-05-10T04:27:03;25.38;;;12.07;;
59338;SDS011;45117;50.960;5.500;2023-05-10T04:29:30;28.30;;;12.68;;
59338;SDS011;45117;50.960;5.500;2023-05-10T04:31:56;27.60;;;12.38;;
59338;SDS011;45117;50.960;5.500;2023-05-10T04:34:23;28.48;;;12.95;;
59338;SDS011;45117;50.960;5.500;2023-05-10T04:36:50;28.25;;;13.13;;
59338;SDS011;45117;50.960;5.500;2023-05-10T04:39:17;23.33;;;11.52;;
59338;SDS011;45117;50.960;5.500;2023-05-10T04:41:43;28.25;;;13.63;;
59338;SDS011;45117;50.960;5.500;2023-05-10T04:44:10;28.48;;;13.45;;
59338;SDS011;45117;50.960;5.500;2023-05-10T04:46:36;24.30;;;12.00;;
59338;SDS011;45117;50.960;5.500;2023-05-10T04:49:03;31.63;;;13.88;;
59338;SDS011;45117;50.960;5.500;2023-05-10T04:51:29;27.20;;;13.70;;
59338;SDS011;45117;50.960;5.500;2023-05-10T04:53:57;24.70;;;12.20;;
59338;SDS011;45117;50.960;5.500;2023-05-10T04:56:24;21.10;;;10.65;;
59338;SDS011;45117;50.960;5.500;2023-05-10T04:58:50;24.65;;;12.77;;
59338;SDS011;45117;50.960;5.500;2023-05-10T05:01:17;23.33;;;11.55;;
59338;SDS011;45117;50.960;5.500;2023-05-10T05:03:43;21.17;;;11.25;;
59338;SDS011;45117;50.960;5.500;2023-05-10T05:06:10;19.48;;;9.13;;
59338;SDS011;45117;50.960;5.500;2023-05-10T05:08:36;13.95;;;8.20;;
59338;SDS011;45117;50.960;5.500;2023-05-10T05:11:04;18.83;;;10.00;;
59338;SDS011;45117;50.960;5.500;2023-05-10T05:13:30;17.58;;;9.00;;
59338;SDS011;45117;50.960;5.500;2023-05-10T05:15:57;15.20;;;8.80;;
59338;SDS011;45117;50.960;5.500;2023-05-10T05:18:26;21.65;;;9.85;;
59338;SDS011;45117;50.960;5.500;2023-05-10T05:20:53;19.27;;;10.05;;
59338;SDS011;45117;50.960;5.500;2023-05-10T05:23:19;22.25;;;9.80;;
59338;SDS011;45117;50.960;5.500;2023-05-10T05:25:49;17.58;;;9.30;;
59338;SDS011;45117;50.960;5.500;2023-05-10T05:28:18;23.17;;;10.40;;
59338;SDS011;45117;50.960;5.500;2023-05-10T05:30:45;24.60;;;12.15;;
59338;SDS011;45117;50.960;5.500;2023-05-10T05:33:11;23.48;;;12.05;;
59338;SDS011;45117;50.960;5.500;2023-05-10T05:35:40;26.85;;;12.65;;
59338;SDS011;45117;50.960;5.500;2023-05-10T05:38:07;27.73;;;13.75;;
59338;SDS011;45117;50.960;5.500;2023-05-10T05:40:34;27.63;;;13.45;;
59338;SDS011;45117;50.960;5.500;2023-05-10T05:43:00;32.88;;;15.38;;
59338;SDS011;45117;50.960;5.500;2023-05-10T05:45:28;30.05;;;13.48;;
59338;SDS011;45117;50.960;5.500;2023-05-10T05:47:55;37.22;;;16.40;;
59338;SDS011;45117;50.960;5.500;2023-05-10T05:50:21;44.00;;;18.23;;
59338;SDS011;45117;50.960;5.500;2023-05-10T05:52:48;48.65;;;19.70;;
59338;SDS011;45117;50.960;5.500;2023-05-10T05:55:15;66.07;;;24.33;;
59338;SDS011;45117;50.960;5.500;2023-05-10T05:57:41;61.67;;;22.83;;
59338;SDS011;45117;50.960;5.500;2023-05-10T06:00:08;65.95;;;24.40;;
59338;SDS011;45117;50.960;5.500;2023-05-10T06:02:36;69.45;;;24.95;;
59338;SDS011;45117;50.960;5.500;2023-05-10T06:05:03;68.00;;;24.50;;
59338;SDS011;45117;50.960;5.500;2023-05-10T06:07:30;70.63;;;25.88;;
59338;SDS011;45117;50.960;5.500;2023-05-10T06:09:56;66.68;;;24.55;;
59338;SDS011;45117;50.960;5.500;2023-05-10T06:12:23;68.75;;;24.80;;
59338;SDS011;45117;50.960;5.500;2023-05-10T06:14:50;74.95;;;25.65;;
59338;SDS011;45117;50.960;5.500;2023-05-10T06:17:16;77.90;;;26.50;;
59338;SDS011;45117;50.960;5.500;2023-05-10T06:19:44;76.35;;;26.65;;
59338;SDS011;45117;50.960;5.500;2023-05-10T06:22:10;73.65;;;25.42;;
59338;SDS011;45117;50.960;5.500;2023-05-10T06:24:37;69.05;;;24.70;;
59338;SDS011;45117;50.960;5.500;2023-05-10T06:27:03;71.88;;;26.20;;
59338;SDS011;45117;50.960;5.500;2023-05-10T06:29:30;71.43;;;25.67;;
59338;SDS011;45117;50.960;5.500;2023-05-10T06:31:56;72.95;;;26.33;;
59338;SDS011;45117;50.960;5.500;2023-05-10T06:34:23;68.75;;;25.42;;
59338;SDS011;45117;50.960;5.500;2023-05-10T06:36:51;70.90;;;24.75;;
59338;SDS011;45117;50.960;5.500;2023-05-10T06:39:18;66.00;;;23.75;;
59338;SDS011;45117;50.960;5.500;2023-05-10T06:41:44;58.83;;;22.73;;
59338;SDS011;45117;50.960;5.500;2023-05-10T06:44:11;56.53;;;22.33;;
59338;SDS011;45117;50.960;5.500;2023-05-10T06:46:37;57.78;;;21.70;;
59338;SDS011;45117;50.960;5.500;2023-05-10T06:49:04;53.00;;;21.77;;
59338;SDS011;45117;50.960;5.500;2023-05-10T06:51:30;49.53;;;20.38;;
59338;SDS011;45117;50.960;5.500;2023-05-10T06:53:59;51.95;;;21.23;;
59338;SDS011;45117;50.960;5.500;2023-05-10T06:56:26;44.95;;;19.23;;
59338;SDS011;45117;50.960;5.500;2023-05-10T06:58:52;48.10;;;20.40;;
59338;SDS011;45117;50.960;5.500;2023-05-10T07:01:19;49.45;;;19.95;;
59338;SDS011;45117;50.960;5.500;2023-05-10T07:03:45;47.15;;;20.05;;
59338;SDS011;45117;50.960;5.500;2023-05-10T07:06:12;44.97;;;19.90;;
59338;SDS011;45117;50.960;5.500;2023-05-10T07:08:38;48.53;;;19.38;;
59338;SDS011;45117;50.960;5.500;2023-05-10T07:11:06;43.53;;;19.27;;
59338;SDS011;45117;50.960;5.500;2023-05-10T07:13:33;40.83;;;17.38;;
59338;SDS011;45117;50.960;5.500;2023-05-10T07:16:01;48.45;;;19.27;;
59338;SDS011;45117;50.960;5.500;2023-05-10T07:18:28;46.78;;;19.17;;
59338;SDS011;45117;50.960;5.500;2023-05-10T07:20:54;45.22;;;19.92;;
59338;SDS011;45117;50.960;5.500;2023-05-10T07:23:21;47.40;;;18.75;;
59338;SDS011;45117;50.960;5.500;2023-05-10T07:25:47;45.08;;;18.25;;
59338;SDS011;45117;50.960;5.500;2023-05-10T07:28:16;39.83;;;17.38;;
59338;SDS011;45117;50.960;5.500;2023-05-10T07:30:42;44.45;;;17.58;;
59338;SDS011;45117;50.960;5.500;2023-05-10T07:33:09;31.50;;;14.90;;
59338;SDS011;45117;50.960;5.500;2023-05-10T07:35:37;43.60;;;17.55;;
59338;SDS011;45117;50.960;5.500;2023-05-10T07:38:03;40.22;;;18.02;;
59338;SDS011;45117;50.960;5.500;2023-05-10T07:40:30;43.60;;;18.25;;
59338;SDS011;45117;50.960;5.500;2023-05-10T07:42:57;42.22;;;16.67;;
59338;SDS011;45117;50.960;5.500;2023-05-10T07:45:26;35.17;;;15.98;;
59338;SDS011;45117;50.960;5.500;2023-05-10T07:47:52;43.13;;;17.67;;
59338;SDS011;45117;50.960;5.500;2023-05-10T07:50:19;44.00;;;18.48;;
59338;SDS011;45117;50.960;5.500;2023-05-10T07:52:46;44.70;;;18.33;;
59338;SDS011;45117;50.960;5.500;2023-05-10T07:55:12;40.00;;;16.92;;
59338;SDS011;45117;50.960;5.500;2023-05-10T07:57:39;34.28;;;16.10;;
59338;SDS011;45117;50.960;5.500;2023-05-10T08:00:06;41.83;;;17.92;;
59338;SDS011;45117;50.960;5.500;2023-05-10T08:02:35;42.25;;;17.73;;
59338;SDS011;45117;50.960;5.500;2023-05-10T08:05:01;34.92;;;16.63;;
59338;SDS011;45117;50.960;5.500;2023-05-10T08:07:28;38.55;;;17.42;;
59338;SDS011;45117;50.960;5.500;2023-05-10T08:09:55;36.15;;;16.55;;
59338;SDS011;45117;50.960;5.500;2023-05-10T08:12:21;35.63;;;16.65;;
59338;SDS011;45117;50.960;5.500;2023-05-10T08:14:48;31.00;;;14.82;;
59338;SDS011;45117;50.960;5.500;2023-05-10T08:17:14;36.65;;;16.35;;
59338;SDS011;45117;50.960;5.500;2023-05-10T08:19:42;33.53;;;15.88;;
59338;SDS011;45117;50.960;5.500;2023-05-10T08:22:09;28.23;;;14.18;;
59338;SDS011;45117;50.960;5.500;2023-05-10T08:24:35;25.80;;;12.70;;
59338;SDS011;45117;50.960;5.500;2023-05-10T08:27:03;23.20;;;12.38;;
59338;SDS011;45117;50.960;5.500;2023-05-10T08:29:29;20.63;;;9.50;;
59338;SDS011;45117;50.960;5.500;2023-05-10T08:31:56;15.80;;;8.73;;
59338;SDS011;45117;50.960;5.500;2023-05-10T08:34:22;14.57;;;8.27;;
59338;SDS011;45117;50.960;5.500;2023-05-10T08:36:51;10.02;;;6.20;;
59338;SDS011;45117;50.960;5.500;2023-05-10T08:39:17;7.45;;;4.40;;
59338;SDS011;45117;50.960;5.500;2023-05-10T08:41:44;8.35;;;4.40;;
59338;SDS011;45117;50.960;5.500;2023-05-10T08:44:12;7.30;;;4.00;;
59338;SDS011;45117;50.960;5.500;2023-05-10T08:46:40;5.68;;;3.55;;
59338;SDS011;45117;50.960;5.500;2023-05-10T08:49:09;6.40;;;3.45;;
59338;SDS011;45117;50.960;5.500;2023-05-10T08:51:40;6.97;;;3.45;;
59338;SDS011;45117;50.960;5.500;2023-05-10T08:54:11;4.53;;;3.00;;
59338;SDS011;45117;50.960;5.500;2023-05-10T08:56:37;4.95;;;3.08;;
59338;SDS011;45117;50.960;5.500;2023-05-10T08:59:04;6.00;;;3.33;;
59338;SDS011;45117;50.960;5.500;2023-05-10T09:01:31;5.88;;;3.50;;
59338;SDS011;45117;50.960;5.500;2023-05-10T09:03:57;5.30;;;3.25;;
59338;SDS011;45117;50.960;5.500;2023-05-10T09:06:24;5.03;;;3.10;;
59338;SDS011;45117;50.960;5.500;2023-05-10T09:08:51;5.93;;;3.17;;
59338;SDS011;45117;50.960;5.500;2023-05-10T09:11:20;5.97;;;3.10;;
59338;SDS011;45117;50.960;5.500;2023-05-10T09:13:47;6.15;;;3.30;;
59338;SDS011;45117;50.960;5.500;2023-05-10T09:16:14;7.25;;;3.08;;
59338;SDS011;45117;50.960;5.500;2023-05-10T09:18:40;3.60;;;2.85;;
59338;SDS011;45117;50.960;5.500;2023-05-10T09:21:07;4.72;;;2.83;;
59338;SDS011;45117;50.960;5.500;2023-05-10T09:23:35;4.72;;;2.53;;
59338;SDS011;45117;50.960;5.500;2023-05-10T09:26:02;5.53;;;3.25;;
59338;SDS011;45117;50.960;5.500;2023-05-10T09:28:32;5.85;;;3.38;;
59338;SDS011;45117;50.960;5.500;2023-05-10T09:30:59;5.13;;;3.38;;
59338;SDS011;45117;50.960;5.500;2023-05-10T09:33:25;5.57;;;3.13;;
59338;SDS011;45117;50.960;5.500;2023-05-10T09:35:52;5.70;;;3.55;;
59338;SDS011;45117;50.960;5.500;2023-05-10T09:38:18;6.22;;;3.72;;
59338;SDS011;45117;50.960;5.500;2023-05-10T09:40:50;7.05;;;4.07;;
59338;SDS011;45117;50.960;5.500;2023-05-10T09:43:19;9.70;;;4.20;;
59338;SDS011;45117;50.960;5.500;2023-05-10T09:45:48;6.72;;;3.97;;
59338;SDS011;45117;50.960;5.500;2023-05-10T09:48:15;5.00;;;3.28;;
59338;SDS011;45117;50.960;5.500;2023-05-10T09:50:41;6.05;;;3.95;;
59338;SDS011;45117;50.960;5.500;2023-05-10T09:53:08;7.70;;;4.47;;
59338;SDS011;45117;50.960;5.500;2023-05-10T09:55:38;8.82;;;4.60;;
59338;SDS011;45117;50.960;5.500;2023-05-10T09:58:06;8.32;;;4.10;;
59338;SDS011;45117;50.960;5.500;2023-05-10T10:00:35;8.18;;;4.30;;
59338;SDS011;45117;50.960;5.500;2023-05-10T10:03:04;8.07;;;4.65;;
59338;SDS011;45117;50.960;5.500;2023-05-10T10:05:30;7.82;;;4.65;;
59338;SDS011;45117;50.960;5.500;2023-05-10T10:07:58;8.05;;;5.13;;
59338;SDS011;45117;50.960;5.500;2023-05-10T10:10:26;9.70;;;5.15;;
59338;SDS011;45117;50.960;5.500;2023-05-10T10:12:53;9.48;;;5.53;;
59338;SDS011;45117;50.960;5.500;2023-05-10T10:15:20;9.48;;;5.45;;
59338;SDS011;45117;50.960;5.500;2023-05-10T10:17:48;8.88;;;5.05;;
59338;SDS011;45117;50.960;5.500;2023-05-10T10:20:16;8.50;;;4.72;;
59338;SDS011;45117;50.960;5.500;2023-05-10T10:22:44;8.02;;;5.40;;
59338;SDS011;45117;50.960;5.500;2023-05-10T10:25:11;7.45;;;4.45;;
59338;SDS011;45117;50.960;5.500;2023-05-10T10:27:41;8.45;;;5.25;;
59338;SDS011;45117;50.960;5.500;2023-05-10T10:30:16;9.32;;;5.50;;
59338;SDS011;45117;50.960;5.500;2023-05-10T10:32:57;10.73;;;6.30;;
59338;SDS011;45117;50.960;5.500;2023-05-10T10:35:36;12.05;;;6.40;;
59338;SDS011;45117;50.960;5.500;2023-05-10T10:38:03;9.15;;;5.82;;
59338;SDS011;45117;50.960;5.500;2023-05-10T10:40:30;11.95;;;7.13;;
59338;SDS011;45117;50.960;5.500;2023-05-10T10:42:57;12.23;;;6.95;;
59338;SDS011;45117;50.960;5.500;2023-05-10T10:46:08;13.48;;;7.25;;
59338;SDS011;45117;50.960;5.500;2023-05-10T10:48:36;11.32;;;7.00;;
59338;SDS011;45117;50.960;5.500;2023-05-10T10:51:02;13.82;;;7.78;;
59338;SDS011;45117;50.960;5.500;2023-05-10T10:53:29;14.18;;;8.15;;
59338;SDS011;45117;50.960;5.500;2023-05-10T10:56:02;13.27;;;8.02;;
59338;SDS011;45117;50.960;5.500;2023-05-10T10:58:33;14.20;;;8.00;;
59338;SDS011;45117;50.960;5.500;2023-05-10T11:01:10;14.00;;;7.65;;
59338;SDS011;45117;50.960;5.500;2023-05-10T11:03:38;14.82;;;8.23;;
59338;SDS011;45117;50.960;5.500;2023-05-10T11:06:04;13.45;;;7.55;;
59338;SDS011;45117;50.960;5.500;2023-05-10T11:08:31;13.82;;;7.93;;
59338;SDS011;45117;50.960;5.500;2023-05-10T11:11:03;15.65;;;7.68;;
59338;SDS011;45117;50.960;5.500;2023-05-10T11:13:32;12.60;;;7.95;;
59338;SDS011;45117;50.960;5.500;2023-05-10T11:16:10;16.80;;;8.13;;
59338;SDS011;45117;50.960;5.500;2023-05-10T11:18:39;10.05;;;6.18;;
59338;SDS011;45117;50.960;5.500;2023-05-10T11:21:07;13.88;;;7.65;;
59338;SDS011;45117;50.960;5.500;2023-05-10T11:23:47;12.00;;;6.45;;
59338;SDS011;45117;50.960;5.500;2023-05-10T11:26:14;12.77;;;7.20;;
59338;SDS011;45117;50.960;5.500;2023-05-10T11:28:41;12.88;;;6.80;;
59338;SDS011;45117;50.960;5.500;2023-05-10T11:31:08;11.55;;;6.90;;
59338;SDS011;45117;50.960;5.500;2023-05-10T11:33:43;9.95;;;5.93;;
59338;SDS011;45117;50.960;5.500;2023-05-10T11:36:10;11.02;;;5.93;;
59338;SDS011;45117;50.960;5.500;2023-05-10T11:38:37;9.30;;;4.85;;
59338;SDS011;45117;50.960;5.500;2023-05-10T11:41:04;8.57;;;5.82;;
59338;SDS011;45117;50.960;5.500;2023-05-10T11:43:30;9.30;;;5.70;;
59338;SDS011;45117;50.960;5.500;2023-05-10T11:45:57;8.18;;;5.05;;
59338;SDS011;45117;50.960;5.500;2023-05-10T11:48:23;9.32;;;5.93;;
59338;SDS011;45117;50.960;5.500;2023-05-10T11:50:51;8.02;;;5.35;;
59338;SDS011;45117;50.960;5.500;2023-05-10T11:53:21;8.32;;;4.90;;
59338;SDS011;45117;50.960;5.500;2023-05-10T11:55:48;9.63;;;5.05;;
59338;SDS011;45117;50.960;5.500;2023-05-10T11:58:15;9.05;;;4.97;;
59338;SDS011;45117;50.960;5.500;2023-05-10T12:00:41;9.38;;;5.45;;
59338;SDS011;45117;50.960;5.500;2023-05-10T12:03:08;8.25;;;5.13;;
59338;SDS011;45117;50.960;5.500;2023-05-10T12:05:35;7.18;;;4.50;;
59338;SDS011;45117;50.960;5.500;2023-05-10T12:08:12;6.63;;;4.63;;
59338;SDS011;45117;50.960;5.500;2023-05-10T12:10:40;8.18;;;5.13;;
59338;SDS011;45117;50.960;5.500;2023-05-10T12:13:10;7.18;;;4.57;;
59338;SDS011;45117;50.960;5.500;2023-05-10T12:15:37;7.85;;;4.75;;
59338;SDS011;45117;50.960;5.500;2023-05-10T12:18:04;8.32;;;4.65;;
59338;SDS011;45117;50.960;5.500;2023-05-10T12:20:31;6.43;;;4.47;;
59338;SDS011;45117;50.960;5.500;2023-05-10T12:22:58;8.00;;;4.63;;
59338;SDS011;45117;50.960;5.500;2023-05-10T12:25:30;7.32;;;4.63;;
59338;SDS011;45117;50.960;5.500;2023-05-10T12:27:59;8.73;;;4.72;;
59338;SDS011;45117;50.960;5.500;2023-05-10T12:30:28;7.38;;;4.40;;
59338;SDS011;45117;50.960;5.500;2023-05-10T12:32:59;6.43;;;4.07;;
59338;SDS011;45117;50.960;5.500;2023-05-10T12:35:29;7.85;;;4.45;;
59338;SDS011;45117;50.960;5.500;2023-05-10T12:37:56;5.85;;;3.50;;
59338;SDS011;45117;50.960;5.500;2023-05-10T12:40:23;4.95;;;3.40;;
59338;SDS011;45117;50.960;5.500;2023-05-10T12:42:51;7.20;;;3.92;;
59338;SDS011;45117;50.960;5.500;2023-05-10T12:45:18;4.60;;;3.00;;
59338;SDS011;45117;50.960;5.500;2023-05-10T12:47:45;5.95;;;3.88;;
59338;SDS011;45117;50.960;5.500;2023-05-10T12:50:11;4.68;;;3.20;;
59338;SDS011;45117;50.960;5.500;2023-05-10T12:52:38;5.32;;;3.08;;
59338;SDS011;45117;50.960;5.500;2023-05-10T12:55:05;4.90;;;3.20;;
59338;SDS011;45117;50.960;5.500;2023-05-10T12:57:31;4.70;;;2.85;;
59338;SDS011;45117;50.960;5.500;2023-05-10T12:59:59;4.07;;;2.55;;
59338;SDS011;45117;50.960;5.500;2023-05-10T13:02:26;6.05;;;3.50;;
59338;SDS011;45117;50.960;5.500;2023-05-10T13:04:52;7.13;;;3.95;;
59338;SDS011;45117;50.960;5.500;2023-05-10T13:07:19;5.93;;;3.50;;
59338;SDS011;45117;50.960;5.500;2023-05-10T13:09:45;3.90;;;2.75;;
59338;SDS011;45117;50.960;5.500;2023-05-10T13:12:12;5.38;;;2.70;;
59338;SDS011;45117;50.960;5.500;2023-05-10T13:14:38;4.32;;;3.00;;
59338;SDS011;45117;50.960;5.500;2023-05-10T13:17:07;5.28;;;3.15;;
59338;SDS011;45117;50.960;5.500;2023-05-10T13:19:34;4.28;;;2.80;;
59338;SDS011;45117;50.960;5.500;2023-05-10T13:22:01;4.25;;;2.60;;
59338;SDS011;45117;50.960;5.500;2023-05-10T13:24:27;5.65;;;3.00;;
59338;SDS011;45117;50.960;5.500;2023-05-10T13:26:54;4.55;;;3.00;;
59338;SDS011;45117;50.960;5.500;2023-05-10T13:29:20;4.85;;;2.97;;
59338;SDS011;45117;50.960;5.500;2023-05-10T13:31:47;5.35;;;3.20;;
59338;SDS011;45117;50.960;5.500;2023-05-10T13:34:15;4.70;;;2.60;;
59338;SDS011;45117;50.960;5.500;2023-05-10T13:36:45;4.53;;;3.10;;
59338;SDS011;45117;50.960;5.500;2023-05-10T13:39:12;4.15;;;2.70;;
59338;SDS011;45117;50.960;5.500;2023-05-10T13:41:38;3.42;;;2.22;;
59338;SDS011;45117;50.960;5.500;2023-05-10T13:44:05;3.97;;;2.85;;
59338;SDS011;45117;50.960;5.500;2023-05-10T13:46:31;3.08;;;2.20;;
59338;SDS011;45117;50.960;5.500;2023-05-10T13:48:57;4.68;;;2.67;;
59338;SDS011;45117;50.960;5.500;2023-05-10T13:51:25;3.22;;;1.90;;
59338;SDS011;45117;50.960;5.500;2023-05-10T13:53:52;3.17;;;2.08;;
59338;SDS011;45117;50.960;5.500;2023-05-10T13:56:18;3.60;;;2.15;;
59338;SDS011;45117;50.960;5.500;2023-05-10T13:58:45;3.50;;;1.90;;
59338;SDS011;45117;50.960;5.500;2023-05-10T14:01:12;2.50;;;2.08;;
59338;SDS011;45117;50.960;5.500;2023-05-10T14:03:39;4.22;;;2.20;;
59338;SDS011;45117;50.960;5.500;2023-05-10T14:06:05;2.78;;;2.08;;
59338;SDS011;45117;50.960;5.500;2023-05-10T14:08:34;3.22;;;2.08;;
59338;SDS011;45117;50.960;5.500;2023-05-10T14:11:01;2.95;;;2.13;;
59338;SDS011;45117;50.960;5.500;2023-05-10T14:13:28;2.67;;;2.25;;
59338;SDS011;45117;50.960;5.500;2023-05-10T14:15:54;3.95;;;2.60;;
59338;SDS011;45117;50.960;5.500;2023-05-10T14:18:21;2.80;;;2.10;;
59338;SDS011;45117;50.960;5.500;2023-05-10T14:20:47;3.08;;;2.20;;
59338;SDS011;45117;50.960;5.500;2023-05-10T14:23:14;3.20;;;2.40;;
59338;SDS011;45117;50.960;5.500;2023-05-10T14:25:42;2.90;;;2.22;;
59338;SDS011;45117;50.960;5.500;2023-05-10T14:28:09;3.33;;;2.67;;
59338;SDS011;45117;50.960;5.500;2023-05-10T14:30:35;2.85;;;2.20;;
59338;SDS011;45117;50.960;5.500;2023-05-10T14:33:02;2.05;;;1.40;;
59338;SDS011;45117;50.960;5.500;2023-05-10T14:35:29;1.48;;;1.23;;
59338;SDS011;45117;50.960;5.500;2023-05-10T14:37:56;1.42;;;1.15;;
59338;SDS011;45117;50.960;5.500;2023-05-10T14:40:23;1.85;;;1.40;;
59338;SDS011;45117;50.960;5.500;2023-05-10T14:42:51;1.20;;;1.10;;